ADDS METAR Data INFO
IDs: Format: Raw Decoded Include TAF

Data at: 2308 UTC 16 Jan 2018

KSNC 162255Z AUTO 00000KT 10SM OVC028 01/M02 A3041 RMK AO2
KSNC 162235Z AUTO 00000KT 10SM OVC028 01/M02 A3041 RMK AO2
KSNC 162215Z AUTO 00000KT 10SM OVC029 01/M02 A3042 RMK AO2
KSNC 162155Z AUTO 00000KT 10SM OVC028 01/M02 A3042 RMK AO2
KSNC 162135Z AUTO 00000KT 10SM OVC028 01/M02 A3042 RMK AO2
KSNC 162115Z AUTO 12004KT 10SM OVC028 02/M02 A3042 RMK AO2
KSNC 162055Z AUTO 13003KT 10SM 02/M03 A3042 RMK AO2
KSNC 162035Z AUTO 16003KT 10SM OVC027 02/M03 A3042 RMK AO2
KSNC 162015Z AUTO 16005KT 10SM SCT028 BKN065 02/M03 A3042 RMK AO2
KSNC 161955Z AUTO 15004KT 10SM OVC070 02/M03 A3042 RMK AO2
KSNC 161935Z AUTO 14004KT 10SM OVC070 02/M03 A3042 RMK AO2
KSNC 161915Z AUTO 13003KT 10SM BKN070 02/M03 A3042 RMK AO2
KSNC 161855Z AUTO 17004KT 10SM SCT027 BKN070 02/M03 A3043 RMK AO2
KSNC 161835Z AUTO 18004KT 10SM BKN027 BKN070 02/M04 A3043 RMK AO2
KSNC 161815Z AUTO 17005KT 10SM OVC026 02/M04 A3043 RMK AO2
KSNC 161755Z AUTO 17004KT 10SM OVC026 02/M04 A3044 RMK AO2
KSNC 161735Z AUTO 10004KT 10SM BKN027 BKN070 BKN085 01/M05 A3044 RMK AO2
KSNC 161715Z AUTO 11004KT 9SM FEW018 SCT029 SCT075 01/M05 A3045 RMK AO2
KSNC 161655Z AUTO 00000KT 10SM SCT030 SCT075 BKN085 01/M06 A3046 RMK AO2
KSNC 161635Z AUTO VRB03KT 10SM FEW025 BKN030 BKN075 01/M06 A3047 RMK AO2
KSNC 161615Z AUTO 13004KT 10SM SCT025 BKN031 BKN085 01/M06 A3048 RMK AO2
KSNC 161555Z AUTO 00000KT 9SM FEW085 00/M06 A3049 RMK AO2
KSNC 161535Z AUTO 00000KT 10SM SCT090 M02/M07 A3050 RMK AO2
KSNC 161515Z AUTO 00000KT 10SM FEW032 SCT090 M02/M08 A3050 RMK AO2
KSNC 161455Z AUTO 00000KT 10SM BKN033 BKN085 M03/M08 A3050 RMK AO2
KSNC 161435Z AUTO 00000KT 10SM OVC035 M03/M08 A3051 RMK AO2
KSNC 161415Z AUTO 00000KT 10SM SCT014 OVC035 M04/M09 A3052 RMK AO2
KSNC 161355Z AUTO 00000KT 10SM OVC014 M04/M10 A3052 RMK AO2
KSNC 161335Z AUTO 00000KT 10SM SCT013 SCT017 OVC034 M05/M09 A3052 RMK AO2
KSNC 161315Z AUTO 00000KT 10SM FEW017 OVC034 M05/M10 A3051 RMK AO2
KSNC 161255Z AUTO 00000KT 10SM FEW017 OVC034 M06/M10 A3050 RMK AO2
KSNC 161235Z AUTO 31003KT 10SM BKN034 BKN090 M07/M10 A3050 RMK AO2
KSNC 161215Z AUTO 00000KT 10SM BKN035 BKN095 M08/M10 A3048 RMK AO2
KSNC 161155Z AUTO 00000KT 10SM OVC035 M08/M10 A3048 RMK AO2
KSNC 161135Z AUTO 29003KT 10SM OVC036 M08/M10 A3049 RMK AO2
KSNC 161115Z AUTO 00000KT 10SM OVC037 M08/M10 A3047 RMK AO2
KSNC 161055Z AUTO 00000KT 10SM BKN037 M08/M11 A3048 RMK AO2
KSNC 161035Z AUTO 00000KT 10SM BKN038 M08/M11 A3048 RMK AO2
KSNC 161015Z AUTO 31004KT 10SM OVC040 M08/M10 A3049 RMK AO2
KSNC 160955Z AUTO 33003KT 10SM BKN040 M08/M10 A3048 RMK AO2
KSNC 160935Z AUTO 00000KT 10SM FEW029 SCT041 M08/M10 A3048 RMK AO2
KSNC 160915Z AUTO 33004KT 10SM SCT029 BKN041 M08/M10 A3048 RMK AO2
KSNC 160855Z AUTO 32004KT 10SM CLR M08/M10 A3048 RMK AO2
KSNC 160835Z AUTO 33003KT 10SM CLR M07/M09 A3048 RMK AO2
KSNC 160815Z AUTO 00000KT 10SM CLR M07/M09 A3047 RMK AO2
KSNC 160755Z AUTO 01003KT 10SM CLR M07/M09 A3047 RMK AO2
KSNC 160735Z AUTO 01003KT 10SM FEW030 M07/M09 A3046 RMK AO2
KSNC 160715Z AUTO 36003KT 10SM CLR M07/M09 A3047 RMK AO2
KSNC 160655Z AUTO 00000KT 10SM FEW030 M06/M09 A3046 RMK AO2
KSNC 160635Z AUTO VRB04KT 10SM BKN030 M06/M09 A3046 RMK AO2
KSNC 160615Z AUTO 36004KT 10SM OVC030 M06/M09 A3046 RMK AO2
KSNC 160555Z AUTO 02005KT 10SM BKN031 M06/M08 A3046 RMK AO2
KSNC 160535Z AUTO 01005KT 10SM BKN029 M06/M08 A3046 RMK AO2
KSNC 160515Z AUTO 36004KT 10SM BKN029 M06/M08 A3047 RMK AO2
KSNC 160455Z AUTO 03003KT 10SM FEW030 M06/M08 A3046 RMK AO2
KSNC 160435Z AUTO 02004KT 10SM BKN031 M06/M08 A3047 RMK AO2
KSNC 160415Z AUTO 02005KT 10SM OVC031 M05/M08 A3048 RMK AO2
KSNC 160355Z AUTO 01005KT 10SM OVC031 M05/M08 A3049 RMK AO2
KSNC 160335Z AUTO 02005KT 10SM OVC030 M05/M08 A3049 RMK AO2
KSNC 160315Z AUTO 01006KT 10SM OVC031 M05/M08 A3050 RMK AO2
KSNC 160255Z AUTO 02006KT 10SM OVC030 M05/M08 A3050 RMK AO2
KSNC 160235Z AUTO 01007KT 10SM OVC030 M05/M08 A3050 RMK AO2
KSNC 160215Z AUTO 03005KT 10SM FEW012 OVC029 M05/M08 A3051 RMK AO2
KSNC 160155Z AUTO 03007KT 10SM BKN012 OVC029 M05/M08 A3051 RMK AO2
KSNC 160135Z AUTO VRB05KT 10SM BKN011 OVC031 M05/M08 A3053 RMK AO2
KSNC 160115Z AUTO 02007KT 10SM OVC011 M05/M08 A3053 RMK AO2
KSNC 160055Z AUTO 02008KT 10SM OVC011 M05/M08 A3051 RMK AO2
KSNC 160035Z AUTO 03006KT 10SM OVC010 M05/M08 A3051 RMK AO2
KSNC 160015Z AUTO 03008KT 10SM OVC011 M05/M08 A3052 RMK AO2
KSNC 152355Z AUTO 02007G14KT 10SM OVC011 M05/M08 A3053 RMK AO2
KSNC 152255Z AUTO 02007G13KT 10SM OVC013 M05/M09 A3053 RMK AO2
KSNC 152235Z AUTO 04008KT 10SM -SN OVC013 M05/M09 A3053 RMK AO2
KSNC 152215Z AUTO 03008KT 10SM -SN BKN014 OVC028 M05/M09 A3052 RMK AO2
KSNC 152155Z AUTO 02009KT 10SM -SN FEW015 OVC028 M05/M09 A3052 RMK AO2
KSNC 152135Z AUTO 03007KT 10SM OVC028 M05/M09 A3053 RMK AO2
KSNC 152115Z AUTO 04009KT 10SM BKN015 OVC029 M05/M09 A3052 RMK AO2
KSNC 152055Z AUTO 03008KT 10SM OVC015 M05/M10 A3053 RMK AO2
KSNC 152035Z AUTO 04007KT 10SM OVC015 M05/M10 A3053 RMK AO2
KSNC 152015Z AUTO 36007KT 10SM OVC015 M05/M10 A3054 RMK AO2
KSNC 151955Z AUTO 01011KT 10SM OVC014 M05/M10 A3054 RMK AO2
KSNC 151935Z AUTO 36009G15KT 10SM OVC015 M05/M10 A3054 RMK AO2
KSNC 151915Z AUTO 02007G14KT 10SM OVC015 M05/M10 A3053 RMK AO2
KSNC 151855Z AUTO 02009G15KT 10SM OVC016 M05/M10 A3054 RMK AO2
KSNC 151755Z AUTO 02010KT 10SM OVC015 M05/M11 A3054 RMK AO2
KSNC 151735Z AUTO 02011KT 10SM OVC015 M05/M11 A3056 RMK AO2
KSNC 151715Z AUTO 36011KT 10SM OVC016 M06/M12 A3058 RMK AO2
KSNC 151655Z AUTO 01008G14KT 10SM BKN017 OVC023 M06/M12 A3059 RMK AO2
KSNC 151615Z AUTO 35008KT 10SM OVC028 M07/M13 A3062 RMK AO2
KSNC 151555Z AUTO 35008KT 10SM BKN024 OVC029 M08/M13 A3064 RMK AO2
KSNC 151535Z AUTO 02006G12KT 10SM -SN OVC024 M08/M13 A3066 RMK AO2
KSNC 151515Z AUTO 01008KT 10SM OVC024 M08/M13 A3067 RMK AO2
KSNC 151455Z AUTO 35009KT 10SM -SN OVC025 M08/M14 A3068 RMK AO2
KSNC 151435Z AUTO 36007KT 10SM -SN OVC025 M09/M14 A3068 RMK AO2
KSNC 151415Z AUTO 36008KT 10SM -SN OVC025 M09/M14 A3068 RMK AO2
KSNC 151355Z AUTO 36008KT 10SM -SN OVC027 M09/M14 A3068 RMK AO2
KSNC 151335Z AUTO 36009KT 10SM -SN OVC028 M09/M14 A3068 RMK AO2
KSNC 151315Z AUTO 36009KT 10SM -SN OVC026 M09/M15 A3068 RMK AO2
KSNC 151255Z AUTO 36009KT 10SM OVC026 M09/M15 A3067 RMK AO2
KSNC 151235Z AUTO 36008KT 10SM OVC026 M09/M15 A3067 RMK AO2
KSNC 151215Z AUTO 36007KT 330V030 10SM OVC026 M10/M15 A3067 RMK AO2
KSNC 151155Z AUTO 01006KT 10SM OVC026 M10/M15 A3067 RMK AO2
KSNC 151135Z AUTO 35008KT 10SM OVC027 M10/M15 A3067 RMK AO2
KSNC 151115Z AUTO 01008KT 10SM OVC027 M10/M15 A3066 RMK AO2